Time;durP1;ratioP1;P1;durP2;ratioP2;P2;SDS_P1;SDS_P2;PMS_P1;PMS_P2;Temp;Humidity;BMP_temperature;BMP_pressure;BME280_temperature;BME280_humidity;BME280_pressure;Samples;Min_cycle;Max_cycle;Signal;HPM_P1;HPM_P2
2023/05/18 00:02:17;;;;;;;10.15;3.10;;;6.40;99.90;;;;;;5088140;28;20048;-44
2023/05/18 00:04:42;;;;;;;6.35;2.97;;;6.40;99.90;;;;;;5110391;28;20041;-44
2023/05/18 00:07:09;;;;;;;12.45;4.47;;;6.40;99.90;;;;;;5109207;28;20020;-43
2023/05/18 00:09:35;;;;;;;12.93;3.58;;;6.30;99.90;;;;;;5097596;28;20031;-45
2023/05/18 00:12:02;;;;;;;8.25;3.45;;;6.30;99.90;;;;;;5089304;28;20024;-45
2023/05/18 00:14:28;;;;;;;11.80;3.20;;;6.30;99.90;;;;;;5108465;28;20038;-44
2023/05/18 00:16:54;;;;;;;8.35;3.13;;;6.30;99.90;;;;;;5108815;28;20060;-43
2023/05/18 00:19:22;;;;;;;11.63;3.90;;;6.20;99.90;;;;;;5110065;28;20478;-43
2023/05/18 00:21:50;;;;;;;9.80;3.10;;;6.20;99.90;;;;;;5109676;28;20148;-45
2023/05/18 00:24:16;;;;;;;6.88;3.28;;;6.10;99.90;;;;;;5102613;28;20660;-43
2023/05/18 00:26:47;;;;;;;10.10;3.88;;;6.10;99.90;;;;;;5089571;28;20385;-44
2023/05/18 00:29:12;;;;;;;10.55;3.45;;;6.00;99.90;;;;;;5097866;28;20473;-43
2023/05/18 00:31:38;;;;;;;6.07;2.38;;;6.00;99.90;;;;;;5109655;28;20122;-43
2023/05/18 00:34:05;;;;;;;9.98;3.33;;;5.90;99.90;;;;;;5109768;28;20072;-44
2023/05/18 00:36:32;;;;;;;7.25;3.22;;;5.90;99.90;;;;;;5109815;28;20437;-43
2023/05/18 00:38:58;;;;;;;7.82;3.00;;;5.90;99.90;;;;;;5108711;28;20019;-43
2023/05/18 00:41:25;;;;;;;11.73;3.47;;;5.90;99.90;;;;;;5088618;28;20095;-43
2023/05/18 00:43:55;;;;;;;10.00;2.88;;;5.90;99.90;;;;;;5102390;28;20023;-43
2023/05/18 00:46:22;;;;;;;11.40;3.33;;;5.80;99.90;;;;;;5109655;28;20039;-43
2023/05/18 00:48:50;;;;;;;9.80;3.75;;;5.80;99.90;;;;;;5110057;28;20028;-44
2023/05/18 00:51:18;;;;;;;8.52;3.47;;;5.80;99.90;;;;;;5109558;28;20081;-43
2023/05/18 00:53:44;;;;;;;8.02;3.05;;;5.80;99.90;;;;;;5091489;28;20110;-44
2023/05/18 00:56:11;;;;;;;6.88;3.25;;;5.80;99.90;;;;;;5109856;28;20098;-46
2023/05/18 00:58:39;;;;;;;8.32;3.90;;;5.80;99.90;;;;;;5109094;28;20112;-44
2023/05/18 01:01:05;;;;;;;7.22;3.15;;;5.70;99.90;;;;;;5104361;28;20074;-47
2023/05/18 01:03:38;;;;;;;8.45;3.55;;;5.60;99.90;;;;;;5088496;28;20028;-44
2023/05/18 01:06:05;;;;;;;9.05;3.17;;;5.60;99.90;;;;;;5104312;28;20042;-44
2023/05/18 01:08:32;;;;;;;6.70;2.90;;;5.50;99.90;;;;;;5109601;28;20023;-44
2023/05/18 01:11:36;;;;;;;10.38;2.78;;;5.50;99.90;;;;;;5109317;27;20007;-44
2023/05/18 01:14:08;;;;;;;11.15;4.03;;;5.50;99.90;;;;;;5088457;28;20701;-43
2023/05/18 01:16:42;;;;;;;7.65;3.10;;;5.40;99.90;;;;;;5099825;28;20024;-43
2023/05/18 01:19:23;;;;;;;5.70;2.88;;;5.40;99.90;;;;;;5107908;28;20461;-43
2023/05/18 01:22:35;;;;;;;8.63;3.53;;;5.40;99.90;;;;;;5109070;28;20019;-44
2023/05/18 01:25:17;;;;;;;8.35;3.60;;;5.30;99.90;;;;;;5082947;28;20020;-45
2023/05/18 01:27:45;;;;;;;11.23;3.58;;;5.40;99.90;;;;;;5094420;28;20031;-44
2023/05/18 01:30:15;;;;;;;11.00;3.45;;;5.30;99.90;;;;;;5087107;28;20066;-44
2023/05/18 01:32:41;;;;;;;9.23;3.15;;;5.30;99.90;;;;;;5108306;28;20084;-44
2023/05/18 01:35:08;;;;;;;15.13;3.60;;;5.30;99.90;;;;;;5078958;28;20020;-44
2023/05/18 01:37:33;;;;;;;11.52;3.25;;;5.30;99.90;;;;;;5089769;28;20031;-44
2023/05/18 01:40:00;;;;;;;7.00;2.90;;;5.30;99.90;;;;;;5107993;28;20028;-45
2023/05/18 01:42:28;;;;;;;6.13;3.20;;;5.20;99.90;;;;;;5106739;28;20448;-44
2023/05/18 01:45:01;;;;;;;5.25;3.30;;;5.20;99.90;;;;;;5108800;28;20475;-44
2023/05/18 01:47:29;;;;;;;11.15;3.58;;;5.20;99.90;;;;;;5112521;28;20077;-44
2023/05/18 01:49:57;;;;;;;7.70;3.42;;;5.10;99.90;;;;;;5113265;28;20012;-44
2023/05/18 01:52:36;;;;;;;6.93;2.95;;;5.10;99.90;;;;;;5112356;28;20012;-45
2023/05/18 01:55:03;;;;;;;8.95;4.00;;;5.10;99.90;;;;;;5104278;28;20016;-44
2023/05/18 01:57:31;;;;;;;10.77;3.50;;;5.10;99.90;;;;;;5094105;28;20028;-44
2023/05/18 01:59:58;;;;;;;6.07;3.67;;;5.20;99.90;;;;;;5112800;28;20012;-44
2023/05/18 02:02:27;;;;;;;8.82;3.55;;;5.10;99.90;;;;;;5112059;28;20073;-44
2023/05/18 02:04:53;;;;;;;9.52;4.13;;;5.00;99.90;;;;;;5112786;28;20020;-44
2023/05/18 02:07:18;;;;;;;13.63;3.25;;;5.00;99.90;;;;;;5111532;28;20016;-45
2023/05/18 02:09:44;;;;;;;7.65;3.40;;;5.00;99.90;;;;;;5091314;28;20095;-44
2023/05/18 02:12:10;;;;;;;11.48;3.40;;;5.00;99.90;;;;;;5091457;28;20288;-45
2023/05/18 02:14:36;;;;;;;12.52;3.95;;;5.00;99.90;;;;;;5106167;28;20024;-44
2023/05/18 02:17:02;;;;;;;8.95;3.95;;;4.90;99.90;;;;;;5091739;28;20028;-43
2023/05/18 02:19:29;;;;;;;12.25;3.85;;;5.00;99.90;;;;;;5101873;28;20500;-44
2023/05/18 02:21:56;;;;;;;17.52;4.32;;;5.00;99.90;;;;;;5112140;28;20428;-42
2023/05/18 02:24:22;;;;;;;9.90;4.20;;;5.00;99.90;;;;;;5111162;28;20385;-43
2023/05/18 02:26:47;;;;;;;10.07;3.38;;;4.90;99.90;;;;;;5106202;28;20500;-42
2023/05/18 02:29:13;;;;;;;7.45;3.38;;;4.90;99.90;;;;;;5095303;28;20028;-43
2023/05/18 02:31:39;;;;;;;7.63;3.42;;;4.90;99.90;;;;;;5096075;28;20052;-43
2023/05/18 02:34:06;;;;;;;9.70;3.80;;;4.90;99.90;;;;;;5095147;28;20575;-44
2023/05/18 02:36:38;;;;;;;14.27;4.57;;;4.90;99.90;;;;;;5096696;28;20059;-43
2023/05/18 02:39:08;;;;;;;8.48;3.65;;;4.80;99.90;;;;;;5093303;28;20024;-44
2023/05/18 02:41:34;;;;;;;7.05;3.65;;;4.80;99.90;;;;;;5095143;28;20024;-45
2023/05/18 02:44:03;;;;;;;12.10;3.42;;;4.80;99.90;;;;;;5089368;28;20025;-51
2023/05/18 02:46:29;;;;;;;7.57;3.47;;;4.70;99.90;;;;;;5091044;28;20104;-46
2023/05/18 02:48:55;;;;;;;9.35;3.75;;;4.70;99.90;;;;;;5082903;28;20020;-45
2023/05/18 02:51:21;;;;;;;9.88;3.33;;;4.60;99.90;;;;;;5071358;28;20021;-45
2023/05/18 02:53:47;;;;;;;13.40;3.95;;;4.60;99.90;;;;;;5061798;28;20017;-44
2023/05/18 02:56:13;;;;;;;10.50;3.80;;;4.60;99.90;;;;;;5070590;28;20016;-44
2023/05/18 02:58:42;;;;;;;10.35;3.33;;;4.60;99.90;;;;;;5070916;28;20025;-44
2023/05/18 03:01:10;;;;;;;9.82;3.72;;;4.60;99.90;;;;;;5068837;28;20020;-45
2023/05/18 03:03:37;;;;;;;5.55;3.30;;;4.60;99.90;;;;;;5052554;28;20154;-44
2023/05/18 03:06:03;;;;;;;8.00;3.60;;;4.50;99.90;;;;;;5070426;28;20024;-45
2023/05/18 03:08:30;;;;;;;6.93;3.83;;;4.50;99.90;;;;;;5070251;28;20079;-45
2023/05/18 03:10:56;;;;;;;10.73;4.43;;;4.50;99.90;;;;;;5070689;28;20546;-46
2023/05/18 03:13:22;;;;;;;16.63;5.80;;;4.40;99.90;;;;;;5070106;28;20024;-45
2023/05/18 03:15:49;;;;;;;14.50;5.30;;;4.40;99.90;;;;;;5069955;28;20099;-45
2023/05/18 03:18:15;;;;;;;14.82;7.78;;;4.50;99.90;;;;;;5070423;28;20428;-46
2023/05/18 03:20:41;;;;;;;8.65;4.50;;;4.50;99.90;;;;;;5070464;28;20024;-44
2023/05/18 03:23:06;;;;;;;8.77;3.80;;;4.50;99.90;;;;;;5052276;28;20029;-45
2023/05/18 03:25:32;;;;;;;13.75;4.80;;;4.40;99.90;;;;;;5069312;28;20172;-44
2023/05/18 03:27:58;;;;;;;12.50;4.70;;;4.40;99.90;;;;;;5051487;28;20021;-45
2023/05/18 03:30:24;;;;;;;10.75;4.10;;;4.40;99.90;;;;;;5052391;28;20063;-45
2023/05/18 03:32:50;;;;;;;14.20;3.65;;;4.40;99.90;;;;;;5052559;28;20008;-44
2023/05/18 03:35:15;;;;;;;17.25;4.50;;;4.30;99.90;;;;;;5071413;28;20021;-44
2023/05/18 03:37:41;;;;;;;12.02;4.47;;;4.30;99.90;;;;;;5070373;28;20122;-46
2023/05/18 03:40:15;;;;;;;8.82;3.60;;;4.40;99.90;;;;;;5069591;28;20024;-44
2023/05/18 03:42:41;;;;;;;12.07;3.60;;;4.40;99.90;;;;;;5051620;28;20020;-44
2023/05/18 03:45:08;;;;;;;10.02;3.95;;;4.40;99.90;;;;;;5051792;28;20024;-45
2023/05/18 03:47:34;;;;;;;7.43;3.35;;;4.40;99.90;;;;;;5066899;28;20130;-44
2023/05/18 03:50:00;;;;;;;7.45;3.95;;;4.40;99.90;;;;;;5111052;28;20091;-44
2023/05/18 03:52:28;;;;;;;8.82;3.90;;;4.30;99.90;;;;;;5110106;28;20522;-44
2023/05/18 03:54:54;;;;;;;7.95;4.22;;;4.30;99.90;;;;;;5110945;28;20018;-44
2023/05/18 03:57:20;;;;;;;10.07;4.00;;;4.40;99.90;;;;;;5110704;28;20024;-44
2023/05/18 03:59:45;;;;;;;10.45;4.53;;;4.40;99.90;;;;;;5110499;28;20026;-44
2023/05/18 04:02:15;;;;;;;8.57;3.78;;;4.40;99.90;;;;;;5103389;28;20031;-44
2023/05/18 04:04:41;;;;;;;5.68;3.17;;;4.40;99.90;;;;;;5103590;28;20028;-44
2023/05/18 04:07:10;;;;;;;7.07;3.35;;;4.40;99.90;;;;;;5101266;28;20024;-44
2023/05/18 04:09:38;;;;;;;7.43;3.42;;;4.40;99.90;;;;;;5093022;28;20321;-44
2023/05/18 04:12:04;;;;;;;10.90;4.15;;;4.30;99.90;;;;;;5086792;28;20031;-45
2023/05/18 04:14:33;;;;;;;6.82;4.07;;;4.30;99.90;;;;;;5090335;28;20052;-44
2023/05/18 04:17:03;;;;;;;11.40;4.35;;;4.40;99.90;;;;;;5092885;28;20099;-43
2023/05/18 04:19:33;;;;;;;10.65;4.13;;;4.40;99.90;;;;;;5091153;28;20113;-44
2023/05/18 04:21:58;;;;;;;13.30;4.03;;;4.40;99.90;;;;;;5095928;28;20038;-43
2023/05/18 04:24:25;;;;;;;14.82;4.35;;;4.40;99.90;;;;;;5090098;28;20472;-45
2023/05/18 04:26:52;;;;;;;20.23;6.13;;;4.50;99.90;;;;;;5091810;28;20024;-43
2023/05/18 04:29:18;;;;;;;10.82;4.57;;;4.50;99.90;;;;;;5105497;28;20076;-43
2023/05/18 04:31:46;;;;;;;10.32;4.07;;;4.60;99.90;;;;;;5100959;28;20024;-44
2023/05/18 04:34:12;;;;;;;7.85;3.90;;;4.70;99.90;;;;;;5108672;28;20023;-44
2023/05/18 04:36:41;;;;;;;10.02;4.60;;;4.60;99.90;;;;;;5106931;28;20024;-44
2023/05/18 04:39:08;;;;;;;9.68;3.58;;;4.70;99.90;;;;;;5109979;28;20319;-44
2023/05/18 04:41:34;;;;;;;12.23;4.60;;;4.80;99.90;;;;;;5094310;28;20055;-44
2023/05/18 04:44:00;;;;;;;10.18;4.38;;;4.80;99.90;;;;;;5088859;28;20019;-44
2023/05/18 04:46:27;;;;;;;12.55;4.13;;;4.80;99.90;;;;;;5088801;28;20024;-46
2023/05/18 04:48:56;;;;;;;12.00;4.70;;;4.90;99.90;;;;;;5089012;28;20020;-44
2023/05/18 04:51:23;;;;;;;12.45;4.55;;;5.00;99.90;;;;;;5089910;28;20012;-44
2023/05/18 04:53:49;;;;;;;11.32;4.20;;;5.10;99.90;;;;;;5090460;28;20035;-44
2023/05/18 04:56:16;;;;;;;12.73;5.07;;;5.10;99.90;;;;;;5086526;28;20481;-45
2023/05/18 04:58:44;;;;;;;10.07;4.65;;;5.20;99.90;;;;;;5087884;28;20097;-44
2023/05/18 05:01:14;;;;;;;10.68;3.92;;;5.20;99.90;;;;;;5087497;28;20031;-44
2023/05/18 05:03:40;;;;;;;11.52;4.30;;;5.20;99.90;;;;;;5086016;28;20122;-44
2023/05/18 05:06:06;;;;;;;9.98;4.15;;;5.30;99.90;;;;;;5087651;28;20400;-44
2023/05/18 05:08:33;;;;;;;8.65;4.40;;;5.40;99.90;;;;;;5086241;28;20028;-44
2023/05/18 05:11:00;;;;;;;11.13;4.43;;;5.40;99.90;;;;;;5086148;28;20008;-45
2023/05/18 05:13:25;;;;;;;11.27;4.55;;;5.40;99.90;;;;;;5085395;28;20012;-45
2023/05/18 05:15:51;;;;;;;10.60;4.43;;;5.50;99.90;;;;;;5086081;28;20023;-46
2023/05/18 05:18:17;;;;;;;16.83;5.43;;;5.60;99.90;;;;;;5082069;28;20028;-45
2023/05/18 05:20:42;;;;;;;12.73;4.72;;;5.70;99.90;;;;;;5088500;28;20023;-44
2023/05/18 05:23:08;;;;;;;8.82;4.32;;;5.70;99.90;;;;;;5086558;28;20398;-46
2023/05/18 05:25:34;;;;;;;12.13;5.13;;;5.80;99.90;;;;;;5083699;28;20492;-44
2023/05/18 05:28:00;;;;;;;7.72;3.92;;;5.80;99.90;;;;;;5084713;28;20520;-45
2023/05/18 05:30:25;;;;;;;13.82;4.57;;;5.90;99.90;;;;;;5084637;28;20024;-44
2023/05/18 05:32:51;;;;;;;6.20;3.78;;;5.90;99.90;;;;;;5085345;28;20004;-45
2023/05/18 05:35:16;;;;;;;8.77;4.00;;;6.00;99.90;;;;;;5086282;28;20385;-44
2023/05/18 05:37:42;;;;;;;10.10;4.35;;;6.10;99.90;;;;;;5090750;28;20024;-43
2023/05/18 05:40:08;;;;;;;9.57;4.50;;;6.20;99.90;;;;;;5078932;28;20435;-44
2023/05/18 05:42:34;;;;;;;12.38;4.88;;;6.30;99.90;;;;;;5088186;28;20122;-45
2023/05/18 05:45:00;;;;;;;10.15;4.18;;;6.40;99.90;;;;;;5081194;28;20453;-45
2023/05/18 05:47:26;;;;;;;8.93;3.60;;;6.40;99.90;;;;;;5087533;28;20119;-44
2023/05/18 05:49:51;;;;;;;10.95;4.35;;;6.60;99.90;;;;;;5089901;28;20024;-44
2023/05/18 05:52:17;;;;;;;14.85;3.60;;;6.70;99.90;;;;;;5089297;28;20016;-44
2023/05/18 05:54:43;;;;;;;10.98;4.05;;;6.80;99.90;;;;;;5087954;28;20032;-44
2023/05/18 05:57:09;;;;;;;27.25;6.00;;;6.90;99.90;;;;;;5088224;28;20386;-44
2023/05/18 05:59:34;;;;;;;9.05;3.70;;;7.00;99.90;;;;;;5104418;28;20112;-43
2023/05/18 06:02:01;;;;;;;13.43;4.25;;;7.10;99.90;;;;;;5094612;28;20023;-45
2023/05/18 06:04:26;;;;;;;13.93;4.82;;;7.20;99.90;;;;;;5086850;28;20024;-44
2023/05/18 06:06:52;;;;;;;9.98;3.25;;;7.30;99.90;;;;;;5098308;28;20110;-44
2023/05/18 06:09:18;;;;;;;13.15;3.83;;;7.40;99.90;;;;;;5096753;28;20012;-43
2023/05/18 06:11:44;;;;;;;10.38;3.25;;;7.40;99.90;;;;;;5089273;28;20028;-43
2023/05/18 06:14:10;;;;;;;5.85;2.95;;;7.60;99.90;;;;;;5084297;28;20031;-44
2023/05/18 06:16:37;;;;;;;11.13;3.40;;;7.70;99.90;;;;;;5086596;28;20024;-44
2023/05/18 06:19:03;;;;;;;7.57;3.17;;;7.80;99.90;;;;;;5087873;28;20521;-43
2023/05/18 06:21:28;;;;;;;9.57;3.38;;;7.90;99.90;;;;;;5089743;28;20028;-44
2023/05/18 06:23:55;;;;;;;10.40;3.72;;;8.00;99.90;;;;;;5090371;28;20070;-45
2023/05/18 06:26:21;;;;;;;10.55;3.50;;;8.00;99.90;;;;;;5087484;28;20024;-43
2023/05/18 06:28:48;;;;;;;14.20;3.45;;;8.10;99.90;;;;;;5079279;28;20029;-44
2023/05/18 06:31:14;;;;;;;7.43;3.00;;;8.20;99.90;;;;;;5093441;28;20465;-44
2023/05/18 06:33:40;;;;;;;12.48;3.65;;;8.30;99.90;;;;;;5111711;28;20169;-44
2023/05/18 06:36:06;;;;;;;10.88;3.17;;;8.30;99.90;;;;;;5101341;28;20128;-43
2023/05/18 06:38:31;;;;;;;10.98;3.40;;;8.40;99.90;;;;;;5090277;28;20219;-44
2023/05/18 06:40:57;;;;;;;8.77;3.40;;;8.40;99.90;;;;;;5099795;28;20111;-44
2023/05/18 06:43:25;;;;;;;8.85;3.20;;;8.50;99.90;;;;;;5088522;28;20424;-43
2023/05/18 06:45:51;;;;;;;12.23;3.88;;;8.50;99.90;;;;;;5092416;28;20020;-44
2023/05/18 06:48:17;;;;;;;9.95;3.47;;;8.50;99.90;;;;;;5097713;28;20031;-44
2023/05/18 06:50:43;;;;;;;8.73;2.85;;;8.60;99.90;;;;;;5109582;28;20023;-44
2023/05/18 06:53:09;;;;;;;10.32;3.47;;;8.70;99.90;;;;;;5100884;28;20020;-44
2023/05/18 06:55:34;;;;;;;7.95;2.63;;;8.80;99.90;;;;;;5108597;28;20016;-46
2023/05/18 06:58:01;;;;;;;7.22;3.17;;;9.00;99.90;;;;;;5091075;28;20055;-44
2023/05/18 07:00:26;;;;;;;12.93;3.60;;;9.10;99.90;;;;;;5104369;28;20038;-44
2023/05/18 07:02:52;;;;;;;14.20;3.20;;;9.20;99.90;;;;;;5104099;28;20405;-44
2023/05/18 07:05:18;;;;;;;11.25;3.40;;;9.30;99.90;;;;;;5109652;28;20041;-44
2023/05/18 07:07:44;;;;;;;9.25;3.17;;;9.30;99.90;;;;;;5092527;28;20024;-44
2023/05/18 07:10:09;;;;;;;7.55;3.20;;;9.30;99.90;;;;;;5087722;28;20023;-44
2023/05/18 07:12:35;;;;;;;8.27;2.72;;;9.40;99.90;;;;;;5093661;28;20016;-44
2023/05/18 07:15:02;;;;;;;13.73;2.78;;;9.60;99.90;;;;;;5090132;28;20057;-45
2023/05/18 07:17:28;;;;;;;8.32;2.80;;;9.70;99.90;;;;;;5090239;28;20063;-43
2023/05/18 07:19:54;;;;;;;6.55;2.70;;;9.80;99.90;;;;;;5091112;28;20516;-45
2023/05/18 07:22:19;;;;;;;18.33;3.35;;;9.80;99.90;;;;;;5089380;28;20020;-44
2023/05/18 07:24:45;;;;;;;12.98;2.97;;;10.00;99.90;;;;;;5090466;28;20043;-44
2023/05/18 07:27:11;;;;;;;11.10;3.65;;;10.10;99.90;;;;;;5090591;28;20024;-43
2023/05/18 07:29:37;;;;;;;13.57;2.95;;;10.20;99.90;;;;;;5089293;28;20028;-43
2023/05/18 07:32:03;;;;;;;17.52;4.03;;;10.30;99.90;;;;;;5089477;28;20200;-45
2023/05/18 07:34:28;;;;;;;11.73;2.70;;;10.50;99.90;;;;;;5090444;28;20062;-44
2023/05/18 07:36:54;;;;;;;14.30;3.65;;;10.50;99.90;;;;;;5093508;28;20059;-44
2023/05/18 07:39:27;;;;;;;7.90;3.13;;;10.80;99.90;;;;;;5091796;28;20103;-45
2023/05/18 07:41:53;;;;;;;8.85;3.25;;;11.00;99.90;;;;;;5089925;28;20051;-45
2023/05/18 07:44:19;;;;;;;8.00;2.50;;;11.20;99.90;;;;;;5090613;28;20018;-44
2023/05/18 07:46:45;;;;;;;9.85;2.70;;;11.40;99.90;;;;;;5089738;28;20027;-43
2023/05/18 07:49:10;;;;;;;8.77;2.83;;;11.50;99.10;;;;;;5088261;28;20028;-49
2023/05/18 07:51:36;;;;;;;8.55;2.55;;;11.70;99.60;;;;;;5087850;28;20031;-46
2023/05/18 07:54:04;;;;;;;13.65;3.53;;;11.80;99.10;;;;;;5099312;28;20081;-44
2023/05/18 07:56:30;;;;;;;10.55;3.05;;;12.00;98.50;;;;;;5100781;28;20470;-44
2023/05/18 07:58:56;;;;;;;11.00;2.85;;;12.10;99.00;;;;;;5108970;28;20083;-44
2023/05/18 08:01:26;;;;;;;8.77;2.33;;;12.20;98.00;;;;;;5110186;28;20068;-45
2023/05/18 08:03:53;;;;;;;14.37;3.13;;;12.40;98.50;;;;;;5110014;28;20020;-44
2023/05/18 08:06:19;;;;;;;12.88;2.83;;;12.60;96.20;;;;;;5095373;28;20016;-44
2023/05/18 08:08:45;;;;;;;10.25;2.60;;;12.90;95.10;;;;;;5088387;28;20020;-44
2023/05/18 08:11:11;;;;;;;12.82;2.60;;;13.00;95.40;;;;;;5088003;28;20004;-45
2023/05/18 08:13:37;;;;;;;11.38;2.35;;;13.30;94.30;;;;;;5088455;28;20085;-44
2023/05/18 08:16:03;;;;;;;11.20;2.55;;;13.50;95.00;;;;;;5109726;28;20024;-45
2023/05/18 08:18:28;;;;;;;11.82;2.60;;;14.00;93.20;;;;;;5109799;27;20036;-44
2023/05/18 08:20:54;;;;;;;10.82;2.53;;;14.60;90.80;;;;;;5090339;28;20028;-45
2023/05/18 08:23:20;;;;;;;9.35;2.28;;;15.00;92.30;;;;;;5087816;28;20055;-43
2023/05/18 08:25:46;;;;;;;9.10;2.63;;;15.90;90.00;;;;;;5088130;28;20448;-41
2023/05/18 08:28:11;;;;;;;7.88;2.50;;;17.00;85.10;;;;;;5088659;28;20024;-42
2023/05/18 08:30:37;;;;;;;9.23;2.50;;;18.40;76.70;;;;;;5085730;28;20031;-43
2023/05/18 08:33:02;;;;;;;7.13;2.20;;;18.70;69.50;;;;;;5085883;28;20036;-44
2023/05/18 08:35:28;;;;;;;7.78;2.25;;;20.60;67.70;;;;;;5090153;28;20028;-44
2023/05/18 08:37:55;;;;;;;4.50;2.00;;;21.40;63.70;;;;;;5095342;28;20024;-42
2023/05/18 08:40:20;;;;;;;6.15;1.88;;;21.50;60.10;;;;;;5086237;28;20013;-43
2023/05/18 08:42:58;;;;;;;7.88;2.53;;;20.60;60.60;;;;;;5089017;28;20020;-43
2023/05/18 08:45:36;;;;;;;6.95;2.30;;;20.10;59.00;;;;;;5089413;28;20016;-43
2023/05/18 08:48:03;;;;;;;7.18;2.40;;;20.20;62.50;;;;;;5082735;28;20039;-43
2023/05/18 08:50:31;;;;;;;6.80;2.20;;;20.80;61.50;;;;;;5084809;28;20201;-44
2023/05/18 08:53:00;;;;;;;5.20;2.03;;;21.80;59.20;;;;;;5088834;28;20449;-44
2023/05/18 08:55:28;;;;;;;7.83;2.33;;;21.80;59.20;;;;;;5091230;28;20053;-45
2023/05/18 08:57:56;;;;;;;9.15;2.88;;;21.60;58.20;;;;;;5095011;28;20020;-44
2023/05/18 09:00:23;;;;;;;6.38;2.00;;;22.60;60.50;;;;;;5088126;28;20104;-44
2023/05/18 09:02:50;;;;;;;7.82;2.47;;;23.20;56.60;;;;;;5098579;28;20024;-45
2023/05/18 09:05:17;;;;;;;11.52;2.60;;;24.20;54.60;;;;;;5107101;28;20334;-44
2023/05/18 09:07:43;;;;;;;5.57;2.13;;;24.20;55.90;;;;;;5107520;28;20322;-44
2023/05/18 09:10:14;;;;;;;6.72;2.33;;;24.70;53.30;;;;;;5107442;28;20097;-44
2023/05/18 09:12:42;;;;;;;5.90;1.77;;;25.20;51.20;;;;;;5108460;28;20035;-44
2023/05/18 09:15:10;;;;;;;7.72;2.47;;;26.00;52.30;;;;;;5108709;28;20091;-46
2023/05/18 09:17:36;;;;;;;10.60;2.40;;;26.60;46.40;;;;;;5107604;28;20051;-52
2023/05/18 09:20:05;;;;;;;6.40;2.70;;;25.30;45.40;;;;;;5096023;28;20047;-44
2023/05/18 09:22:32;;;;;;;6.88;2.72;;;24.90;48.40;;;;;;5085190;28;20081;-44
2023/05/18 09:24:58;;;;;;;5.60;2.20;;;23.10;49.90;;;;;;5089184;28;20028;-44
2023/05/18 09:27:24;;;;;;;7.90;2.70;;;22.90;51.40;;;;;;5095600;28;20077;-43
2023/05/18 09:29:52;;;;;;;6.40;2.42;;;23.00;50.60;;;;;;5107481;28;20023;-43
2023/05/18 09:32:19;;;;;;;6.55;2.30;;;23.00;50.80;;;;;;5106165;28;20054;-44
2023/05/18 09:34:44;;;;;;;6.70;3.13;;;22.40;52.20;;;;;;5090688;28;20031;-43
2023/05/18 09:37:11;;;;;;;8.43;2.80;;;21.90;53.10;;;;;;5108221;28;20012;-44
2023/05/18 09:39:36;;;;;;;6.63;2.30;;;21.60;53.90;;;;;;5092661;28;20039;-45
2023/05/18 09:42:03;;;;;;;7.47;2.53;;;21.20;56.00;;;;;;5105927;28;20023;-44
2023/05/18 09:44:33;;;;;;;10.85;2.67;;;21.00;56.90;;;;;;5105256;28;20038;-43
2023/05/18 09:46:59;;;;;;;5.80;2.08;;;21.50;55.10;;;;;;5087686;28;20035;-43
2023/05/18 09:49:27;;;;;;;7.53;2.10;;;22.60;54.60;;;;;;5093901;28;20439;-44
2023/05/18 09:51:53;;;;;;;8.35;2.60;;;23.70;52.90;;;;;;5108211;28;20257;-43
2023/05/18 09:54:18;;;;;;;8.95;2.42;;;24.50;50.80;;;;;;5100618;28;20389;-43
2023/05/18 09:56:47;;;;;;;7.97;2.13;;;24.20;49.40;;;;;;5087492;28;20028;-44
2023/05/18 09:59:14;;;;;;;6.28;2.13;;;23.70;50.10;;;;;;5101080;28;20034;-43
2023/05/18 10:02:04;;;;;;;9.18;2.35;;;22.70;50.90;;;;;;5086746;28;20032;-43
2023/05/18 10:04:41;;;;;;;5.75;1.85;;;22.10;52.70;;;;;;5078242;28;20064;-43
2023/05/18 10:07:14;;;;;;;8.63;2.75;;;22.00;52.80;;;;;;5088938;28;20584;-43
2023/05/18 10:09:42;;;;;;;8.70;2.85;;;21.10;53.60;;;;;;5108408;28;20497;-43
2023/05/18 10:12:10;;;;;;;6.57;2.40;;;20.30;56.50;;;;;;5111646;28;20023;-43
2023/05/18 10:14:36;;;;;;;10.18;2.38;;;20.10;58.10;;;;;;5098842;28;20035;-44
2023/05/18 10:17:04;;;;;;;6.65;2.28;;;19.90;58.50;;;;;;5090966;28;20028;-45
2023/05/18 10:19:33;;;;;;;8.70;2.70;;;19.60;61.40;;;;;;5091581;28;20024;-43
2023/05/18 10:22:04;;;;;;;10.13;2.42;;;19.70;59.40;;;;;;5091031;28;20098;-45
2023/05/18 10:24:40;;;;;;;12.40;2.72;;;19.50;58.20;;;;;;5097745;28;20020;-43
2023/05/18 10:27:08;;;;;;;7.88;2.60;;;19.60;59.10;;;;;;5111705;28;20504;-44
2023/05/18 10:29:36;;;;;;;8.38;2.20;;;19.20;60.30;;;;;;5106692;28;20028;-44
2023/05/18 10:32:03;;;;;;;8.13;2.20;;;18.90;59.00;;;;;;5090124;28;20016;-43
2023/05/18 10:34:30;;;;;;;5.20;1.70;;;18.40;61.50;;;;;;5102418;28;20035;-44
2023/05/18 10:36:58;;;;;;;8.48;2.40;;;18.10;63.50;;;;;;5090715;28;20569;-43
2023/05/18 10:39:25;;;;;;;9.10;3.10;;;17.90;64.20;;;;;;5105441;28;20026;-43
2023/05/18 10:41:54;;;;;;;5.30;2.22;;;17.80;61.00;;;;;;5110617;28;20110;-44
2023/05/18 10:44:22;;;;;;;7.47;2.65;;;18.10;62.70;;;;;;5101499;28;20069;-44
2023/05/18 10:46:49;;;;;;;11.15;2.45;;;18.80;57.90;;;;;;5088961;28;20024;-42
2023/05/18 10:49:16;;;;;;;12.35;2.38;;;19.60;58.90;;;;;;5083771;28;20024;-44
2023/05/18 10:51:45;;;;;;;7.28;2.80;;;20.60;58.50;;;;;;5091156;28;20130;-44
2023/05/18 10:54:12;;;;;;;10.05;3.35;;;21.30;53.90;;;;;;5091220;28;20013;-44
2023/05/18 10:56:44;;;;;;;6.03;2.30;;;22.00;54.20;;;;;;5090981;28;20020;-44
2023/05/18 10:59:12;;;;;;;7.40;2.65;;;22.70;55.80;;;;;;5072928;28;20085;-44
2023/05/18 11:01:40;;;;;;;5.25;2.10;;;23.20;50.80;;;;;;5090924;28;20031;-44
2023/05/18 11:04:06;;;;;;;6.93;2.45;;;23.90;52.10;;;;;;5090858;28;20024;-43
2023/05/18 11:06:34;;;;;;;8.55;2.67;;;24.60;51.00;;;;;;5090960;28;20035;-44
2023/05/18 11:09:00;;;;;;;4.70;2.17;;;24.50;51.00;;;;;;5080407;28;20492;-45
2023/05/18 11:11:28;;;;;;;8.15;2.70;;;24.50;52.50;;;;;;5084529;28;20031;-43
2023/05/18 11:14:01;;;;;;;10.07;2.65;;;24.80;52.20;;;;;;5085049;28;20017;-44
2023/05/18 11:16:33;;;;;;;7.95;2.65;;;24.80;50.00;;;;;;5070010;28;20013;-49
2023/05/18 11:19:05;;;;;;;6.72;2.20;;;24.60;51.60;;;;;;5054573;28;20024;-45
2023/05/18 11:21:40;;;;;;;7.03;2.03;;;24.60;48.90;;;;;;5078745;28;20112;-44
2023/05/18 11:24:24;;;;;;;5.80;2.50;;;24.50;49.10;;;;;;5078010;28;20036;-43
2023/05/18 11:26:54;;;;;;;7.38;2.65;;;24.10;52.40;;;;;;5063304;28;20056;-43
2023/05/18 11:29:32;;;;;;;9.00;2.95;;;24.50;49.90;;;;;;5090843;28;20390;-43
2023/05/18 11:32:01;;;;;;;9.38;2.65;;;24.30;50.00;;;;;;5090104;28;20020;-43
2023/05/18 11:34:38;;;;;;;11.60;3.00;;;25.30;47.50;;;;;;5090464;28;20102;-43
2023/05/18 11:37:05;;;;;;;7.45;2.72;;;25.20;47.60;;;;;;5090558;28;20024;-44
2023/05/18 11:39:32;;;;;;;6.53;2.55;;;24.70;48.80;;;;;;5090426;28;20028;-44
2023/05/18 11:41:59;;;;;;;7.72;2.42;;;24.50;50.00;;;;;;5071265;28;20039;-43
2023/05/18 11:44:27;;;;;;;6.20;2.47;;;24.90;52.20;;;;;;5090383;28;20099;-44
2023/05/18 11:47:09;;;;;;;8.80;2.50;;;25.60;49.00;;;;;;5045922;28;20039;-43
2023/05/18 11:49:45;;;;;;;5.95;2.30;;;25.30;50.30;;;;;;5069889;28;20482;-43
2023/05/18 11:52:11;;;;;;;6.65;2.35;;;25.20;50.30;;;;;;5081360;28;20430;-44
2023/05/18 11:54:48;;;;;;;7.85;2.80;;;25.50;49.60;;;;;;5089997;28;20035;-43
2023/05/18 11:57:16;;;;;;;4.60;1.90;;;24.50;52.30;;;;;;5090094;28;20051;-43
2023/05/18 11:59:44;;;;;;;8.40;2.42;;;24.40;49.80;;;;;;5090332;28;20032;-43
2023/05/18 12:02:12;;;;;;;9.95;2.72;;;24.00;51.70;;;;;;5071760;28;20058;-44
2023/05/18 12:04:46;;;;;;;6.28;2.20;;;23.80;52.00;;;;;;5071956;28;20024;-44
2023/05/18 12:07:13;;;;;;;5.50;2.05;;;23.00;54.50;;;;;;5090083;28;20024;-43
2023/05/18 12:09:43;;;;;;;7.60;2.33;;;23.00;54.00;;;;;;5071425;28;20551;-43
2023/05/18 12:12:10;;;;;;;5.27;2.10;;;22.70;51.10;;;;;;5084773;28;20301;-43
2023/05/18 12:14:51;;;;;;;9.30;3.38;;;22.40;54.40;;;;;;5074684;28;20255;-43
2023/05/18 12:17:17;;;;;;;9.45;2.38;;;22.00;55.40;;;;;;5067933;28;20032;-44
2023/05/18 12:19:43;;;;;;;9.73;2.72;;;22.30;53.70;;;;;;5068157;28;20129;-43
2023/05/18 12:22:10;;;;;;;7.45;2.20;;;22.30;54.10;;;;;;5082476;28;20024;-43
2023/05/18 12:24:37;;;;;;;11.90;2.60;;;21.90;54.30;;;;;;5070122;28;20028;-44
2023/05/18 12:27:05;;;;;;;9.77;2.75;;;21.70;57.40;;;;;;5089127;28;20118;-45
2023/05/18 12:29:31;;;;;;;5.88;2.10;;;21.50;54.70;;;;;;5087129;28;20024;-44
2023/05/18 12:31:57;;;;;;;10.65;2.50;;;21.30;54.90;;;;;;5076452;28;20032;-43
2023/05/18 12:34:28;;;;;;;7.13;2.30;;;20.90;53.20;;;;;;5076091;28;20024;-45
2023/05/18 12:36:54;;;;;;;6.82;2.65;;;21.10;55.30;;;;;;5089289;28;20027;-44
2023/05/18 12:39:20;;;;;;;4.40;2.10;;;21.20;53.40;;;;;;5089209;28;20028;-43
2023/05/18 12:41:46;;;;;;;11.10;4.47;;;20.80;55.70;;;;;;5083781;28;20039;-44
2023/05/18 12:44:12;;;;;;;26.52;10.95;;;21.20;55.20;;;;;;5089115;28;20016;-44
2023/05/18 12:46:39;;;;;;;14.55;6.57;;;20.70;56.10;;;;;;5069073;28;20028;-44
2023/05/18 12:49:05;;;;;;;10.55;3.40;;;20.90;55.50;;;;;;5091354;28;20089;-44
2023/05/18 12:51:32;;;;;;;9.10;3.00;;;20.90;53.50;;;;;;5109475;28;20023;-44